createdAt,value
2022-08-04T00:00:27.777Z,25.3
2022-08-04T00:02:27.776Z,25.2
2022-08-04T00:04:27.782Z,25.2
2022-08-04T00:05:27.783Z,25.2
2022-08-04T00:06:27.785Z,25.2
2022-08-04T00:07:44.042Z,25.1
2022-08-04T00:08:27.783Z,25.1
2022-08-04T00:09:27.784Z,25.2
2022-08-04T00:10:27.781Z,25.2
2022-08-04T00:11:27.786Z,25.3
2022-08-04T00:12:31.145Z,25.3
2022-08-04T00:13:27.788Z,25.1
2022-08-04T00:14:27.796Z,25.2
2022-08-04T00:15:27.797Z,25.2
2022-08-04T00:16:32.760Z,25
2022-08-04T00:17:27.789Z,25
2022-08-04T00:18:27.785Z,25.1
2022-08-04T00:19:27.787Z,25
2022-08-04T00:20:27.788Z,25.1
2022-08-04T00:21:27.793Z,24.9
2022-08-04T00:22:27.801Z,25.1
2022-08-04T00:23:27.797Z,25
2022-08-04T00:24:27.794Z,25.2
2022-08-04T00:25:27.791Z,25.2
2022-08-04T00:26:27.802Z,25.2
2022-08-04T00:27:27.805Z,25.2
2022-08-04T00:28:27.794Z,25.1
2022-08-04T00:29:27.799Z,25.2
2022-08-04T00:31:33.271Z,25.2
2022-08-04T00:32:33.659Z,25.1
2022-08-04T00:33:27.820Z,25.2
2022-08-04T00:34:27.814Z,25
2022-08-04T00:35:27.796Z,25
2022-08-04T00:36:27.816Z,25.1
2022-08-04T00:37:27.805Z,25
2022-08-04T00:38:27.810Z,25
2022-08-04T00:39:27.915Z,25.1
2022-08-04T00:40:29.009Z,25.1
2022-08-04T00:41:27.803Z,24.9
2022-08-04T00:42:27.805Z,25
2022-08-04T00:43:27.796Z,25
2022-08-04T00:44:27.800Z,25
2022-08-04T00:45:27.805Z,25
2022-08-04T00:46:27.843Z,24.9
2022-08-04T00:47:27.802Z,25
2022-08-04T00:48:27.809Z,25.1
2022-08-04T00:49:27.808Z,25.1
2022-08-04T00:50:27.814Z,25.2
2022-08-04T00:51:27.810Z,25.2
2022-08-04T00:52:32.083Z,25.1
2022-08-04T00:53:27.802Z,25.2
2022-08-04T00:54:27.819Z,25.2
2022-08-04T00:55:27.801Z,25.3
2022-08-04T00:56:27.813Z,25.2
2022-08-04T00:57:30.171Z,25.2
2022-08-04T00:58:27.813Z,25.1
2022-08-04T00:59:27.811Z,24.9
2022-08-04T01:00:27.819Z,25
2022-08-04T01:01:27.892Z,25
2022-08-04T01:02:27.819Z,25.1
2022-08-04T01:03:27.821Z,25.1
2022-08-04T01:04:27.814Z,25.1
2022-08-04T01:05:27.815Z,25.2
2022-08-04T01:06:27.848Z,25
2022-08-04T01:07:27.812Z,25
2022-08-04T01:08:27.814Z,25.1
2022-08-04T01:10:27.817Z,25.1
2022-08-04T01:11:27.815Z,25
2022-08-04T01:12:27.823Z,24.9
2022-08-04T01:13:27.819Z,25
2022-08-04T01:14:27.823Z,24.9
2022-08-04T01:15:27.818Z,24.9
2022-08-04T01:16:27.816Z,24.9
2022-08-04T01:17:27.815Z,25
2022-08-04T01:18:27.823Z,24.9
2022-08-04T01:19:27.820Z,24.9
2022-08-04T01:20:27.817Z,25.1
2022-08-04T01:21:27.825Z,24.7
2022-08-04T01:22:27.821Z,24.7
2022-08-04T01:23:27.818Z,24.6
2022-08-04T01:24:27.830Z,24.7
2022-08-04T01:25:27.823Z,24.7
2022-08-04T01:26:44.110Z,24.8
2022-08-04T01:27:27.826Z,24.8
2022-08-04T01:28:27.825Z,24.7
2022-08-04T01:29:29.281Z,24.6
2022-08-04T01:30:27.824Z,24.7
2022-08-04T01:31:27.829Z,24.7
2022-08-04T01:32:27.825Z,24.8
2022-08-04T01:33:27.825Z,24.9
2022-08-04T01:34:27.822Z,24.9
2022-08-04T01:35:47.929Z,24.9
2022-08-04T01:36:27.986Z,24.7
2022-08-04T01:37:27.834Z,24.6
2022-08-04T01:38:27.832Z,24.6
2022-08-04T01:39:27.897Z,24.6
2022-08-04T01:40:27.830Z,24.8
2022-08-04T01:41:32.829Z,24.7
2022-08-04T01:42:32.064Z,24.9
2022-08-04T01:43:27.835Z,24.6
2022-08-04T01:44:27.831Z,24.6
2022-08-04T01:45:27.827Z,24.6
2022-08-04T01:46:27.830Z,24.6
2022-08-04T01:47:27.840Z,24.6
2022-08-04T01:48:27.841Z,24.5
2022-08-04T01:49:27.837Z,24.6
2022-08-04T01:50:27.835Z,24.6
2022-08-04T01:52:27.839Z,24.5
2022-08-04T01:53:27.854Z,24.6
2022-08-04T01:54:27.845Z,24.6
2022-08-04T01:55:54.862Z,24.7
2022-08-04T01:56:27.838Z,24.7
2022-08-04T01:57:38.551Z,24.7
2022-08-04T01:58:27.843Z,24.7
2022-08-04T01:59:27.885Z,24.7
2022-08-04T02:00:27.842Z,24.7
2022-08-04T02:01:27.876Z,24.7
2022-08-04T02:02:28.020Z,24.5
2022-08-04T02:04:20.714Z,24.4
2022-08-04T02:04:27.842Z,24.5
2022-08-04T02:06:03.953Z,24.6
2022-08-04T02:06:27.849Z,24.6
2022-08-04T02:07:27.841Z,24.6
2022-08-04T02:08:27.870Z,24.5
2022-08-04T02:09:27.846Z,24.8
2022-08-04T02:10:27.859Z,24.7
2022-08-04T02:11:27.847Z,24.6
2022-08-04T02:13:27.851Z,24.4
2022-08-04T02:14:27.852Z,24.5
2022-08-04T02:15:27.858Z,24.4
2022-08-04T02:16:27.855Z,24.3
2022-08-04T02:17:28.087Z,24.4
2022-08-04T02:19:27.857Z,24.4
2022-08-04T02:20:27.857Z,24.5
2022-08-04T02:21:27.851Z,24.4
2022-08-04T02:22:27.854Z,24.4
2022-08-04T02:23:27.851Z,24.4
2022-08-04T02:24:27.845Z,24.3
2022-08-04T02:25:27.848Z,24.3
2022-08-04T02:26:27.892Z,24.1
2022-08-04T02:27:27.851Z,24.3
2022-08-04T02:28:27.850Z,24.2
2022-08-04T02:29:31.806Z,24.1
2022-08-04T02:31:28.761Z,24.1
2022-08-04T02:32:27.850Z,24.1
2022-08-04T02:33:27.866Z,24
2022-08-04T02:34:27.854Z,24.1
2022-08-04T02:35:27.866Z,24.3
2022-08-04T02:36:27.856Z,24.2
2022-08-04T02:37:27.872Z,24.2
2022-08-04T02:38:27.861Z,24
2022-08-04T02:39:27.900Z,24.1
2022-08-04T02:40:27.871Z,24.1
2022-08-04T02:41:27.867Z,24.1
2022-08-04T02:42:27.866Z,24.1
2022-08-04T02:43:50.302Z,24.1
2022-08-04T02:44:27.866Z,24.1
2022-08-04T02:45:27.868Z,24.1
2022-08-04T02:46:27.868Z,24
2022-08-04T02:48:28.847Z,24.1
2022-08-04T02:48:31.014Z,24.2
2022-08-04T02:49:27.871Z,24.2
2022-08-04T02:50:29.102Z,24.3
2022-08-04T02:51:27.874Z,24.2
2022-08-04T02:52:27.870Z,24.2
2022-08-04T02:53:27.880Z,24.3
2022-08-04T02:54:32.706Z,24.2
2022-08-04T02:55:27.864Z,24.2
2022-08-04T02:56:27.871Z,24.2
2022-08-04T02:57:27.870Z,24.2
2022-08-04T02:58:27.875Z,24.2
2022-08-04T02:59:27.911Z,24
2022-08-04T03:00:27.872Z,24
2022-08-04T03:01:27.953Z,23.9
2022-08-04T03:02:27.878Z,23.9
2022-08-04T03:03:27.878Z,23.9
2022-08-04T03:04:27.888Z,23.9
2022-08-04T03:05:27.881Z,23.9
2022-08-04T03:06:27.877Z,23.7
2022-08-04T03:07:27.877Z,23.6
2022-08-04T03:08:27.887Z,23.6
2022-08-04T03:09:27.879Z,23.5
2022-08-04T03:10:29.513Z,23.4
2022-08-04T03:11:27.880Z,23.4
2022-08-04T03:12:27.889Z,23.5
2022-08-04T03:13:27.893Z,23.5
2022-08-04T03:14:27.900Z,23.5
2022-08-04T03:15:27.882Z,23.4
2022-08-04T03:16:30.013Z,23.4
2022-08-04T03:17:27.879Z,23.5
2022-08-04T03:18:27.884Z,23.4
2022-08-04T03:19:27.890Z,23.3
2022-08-04T03:20:27.888Z,23.3
2022-08-04T03:21:27.891Z,23.3
2022-08-04T03:22:27.914Z,23.3
2022-08-04T03:23:27.883Z,23.2
2022-08-04T03:24:27.891Z,23.1
2022-08-04T03:25:27.890Z,23.1
2022-08-04T03:26:27.880Z,23.1
2022-08-04T03:27:27.896Z,23.2
2022-08-04T03:28:27.892Z,23.2
2022-08-04T03:29:37.124Z,23.1
2022-08-04T03:30:27.892Z,23.1
2022-08-04T03:31:27.889Z,23
2022-08-04T03:32:27.886Z,22.9
2022-08-04T03:33:27.890Z,22.9
2022-08-04T03:34:27.892Z,22.9
2022-08-04T03:35:27.894Z,22.9
2022-08-04T03:36:31.677Z,23
2022-08-04T03:37:27.892Z,23
2022-08-04T03:38:27.902Z,23
2022-08-04T03:39:27.952Z,22.9
2022-08-04T03:40:27.895Z,23
2022-08-04T03:41:51.567Z,23
2022-08-04T03:42:27.899Z,22.9
2022-08-04T03:43:58.043Z,22.9
2022-08-04T03:44:27.898Z,22.9
2022-08-04T03:45:27.895Z,22.9
2022-08-04T03:46:27.896Z,22.8
2022-08-04T03:47:27.892Z,22.7
2022-08-04T03:48:27.902Z,22.7
2022-08-04T03:49:27.904Z,22.7
2022-08-04T03:50:27.901Z,22.7
2022-08-04T03:51:35.620Z,22.7
2022-08-04T03:52:27.911Z,22.7
2022-08-04T03:53:27.909Z,22.7
2022-08-04T03:54:27.904Z,22.6
2022-08-04T03:55:27.899Z,22.6
2022-08-04T03:56:27.903Z,22.6
2022-08-04T03:57:27.903Z,22.6
2022-08-04T03:58:30.645Z,22.6
2022-08-04T03:59:27.909Z,22.6
2022-08-04T04:00:27.906Z,22.6
2022-08-04T04:01:27.898Z,22.5
2022-08-04T04:02:27.972Z,22.5
2022-08-04T04:03:29.154Z,22.5
2022-08-04T04:04:27.895Z,22.5
2022-08-04T04:05:27.906Z,22.5
2022-08-04T04:06:27.918Z,22.5
2022-08-04T04:07:36.333Z,22.5
2022-08-04T04:08:27.908Z,22.4
2022-08-04T04:09:42.510Z,22.4
2022-08-04T04:10:29.011Z,22.3
2022-08-04T04:11:27.922Z,22.4
2022-08-04T04:12:27.929Z,22.4
2022-08-04T04:13:27.903Z,22.5
2022-08-04T04:14:27.919Z,22.5
2022-08-04T04:15:27.916Z,22.4
2022-08-04T04:16:27.913Z,22.3
2022-08-04T04:17:27.919Z,22.3
2022-08-04T04:18:27.912Z,22.4
2022-08-04T04:19:27.910Z,22.5
2022-08-04T04:20:27.905Z,22.4
2022-08-04T04:21:27.906Z,22.5
2022-08-04T04:22:27.911Z,22.4
2022-08-04T04:23:27.913Z,22.4
2022-08-04T04:24:33.764Z,22.4
2022-08-04T04:25:27.909Z,22.5
2022-08-04T04:26:27.915Z,22.4
2022-08-04T04:27:27.917Z,22.4
2022-08-04T04:28:45.304Z,22.4
2022-08-04T04:29:27.913Z,22.4
2022-08-04T04:30:27.916Z,22.4
2022-08-04T04:31:27.922Z,22.4
2022-08-04T04:32:27.919Z,22.5
2022-08-04T04:33:27.931Z,22.5
2022-08-04T04:34:27.920Z,22.5
2022-08-04T04:35:27.915Z,22.5
2022-08-04T04:36:27.919Z,22.4
2022-08-04T04:37:27.923Z,22.4
2022-08-04T04:38:27.923Z,22.4
2022-08-04T04:39:27.983Z,22.4
2022-08-04T04:41:27.927Z,22.4
2022-08-04T04:42:27.923Z,22.5
2022-08-04T04:43:51.491Z,22.5
2022-08-04T04:44:30.575Z,22.5
2022-08-04T04:45:27.922Z,22.5
2022-08-04T04:46:27.926Z,22.6
2022-08-04T04:47:42.905Z,22.6
2022-08-04T04:48:27.926Z,22.7
2022-08-04T04:49:27.923Z,22.7
2022-08-04T04:50:32.534Z,22.6
2022-08-04T04:51:27.944Z,22.5
2022-08-04T04:52:27.922Z,22.5
2022-08-04T04:53:27.925Z,22.6
2022-08-04T04:54:27.924Z,22.6
2022-08-04T04:55:27.932Z,22.6
2022-08-04T04:56:27.935Z,22.7
2022-08-04T04:57:53.092Z,22.7
2022-08-04T04:58:27.932Z,22.7
2022-08-04T04:59:27.939Z,22.7
2022-08-04T05:00:27.925Z,22.7
2022-08-04T05:02:27.927Z,22.8
2022-08-04T05:03:27.939Z,22.9
2022-08-04T05:04:27.957Z,22.9
2022-08-04T05:05:27.933Z,22.9
2022-08-04T05:06:27.933Z,22.9
2022-08-04T05:07:27.931Z,22.9
2022-08-04T05:08:44.929Z,23
2022-08-04T05:10:27.942Z,23
2022-08-04T05:11:27.951Z,22.9
2022-08-04T05:14:32.544Z,23
2022-08-04T05:14:38.404Z,23.2
2022-08-04T05:14:38.856Z,23.1
2022-08-04T05:15:27.940Z,23.2
2022-08-04T05:16:27.932Z,23.1
2022-08-04T05:17:27.937Z,23.2
2022-08-04T05:18:27.943Z,23.3
2022-08-04T05:19:27.935Z,23.3
2022-08-04T05:20:27.936Z,23.3
2022-08-04T05:21:27.939Z,23.3
2022-08-04T05:23:27.945Z,23.4
2022-08-04T05:24:27.947Z,23.4
2022-08-04T05:25:27.938Z,23.5
2022-08-04T05:26:27.939Z,23.5
2022-08-04T05:27:27.943Z,23.5
2022-08-04T05:28:27.943Z,23.6
2022-08-04T05:29:31.910Z,23.6
2022-08-04T05:30:27.947Z,23.6
2022-08-04T05:31:27.966Z,23.7
2022-08-04T05:32:27.961Z,23.8
2022-08-04T05:34:27.959Z,23.9
2022-08-04T05:35:52.059Z,23.9
2022-08-04T05:36:40.585Z,23.9
2022-08-04T05:37:28.313Z,24
2022-08-04T05:38:27.951Z,24.2
2022-08-04T05:39:32.357Z,24.1
2022-08-04T05:40:27.950Z,24.1
2022-08-04T05:41:32.433Z,24.2
2022-08-04T05:42:27.953Z,24.1
2022-08-04T05:44:27.961Z,24.1
2022-08-04T05:45:27.955Z,24.2
2022-08-04T05:46:27.958Z,24.2
2022-08-04T05:47:27.963Z,24.2
2022-08-04T05:48:27.963Z,24.3
2022-08-04T05:49:27.959Z,24.4
2022-08-04T05:50:27.953Z,24.4
2022-08-04T05:51:27.961Z,24.5
2022-08-04T05:52:27.957Z,24.5
2022-08-04T05:53:27.975Z,24.5
2022-08-04T05:54:27.957Z,24.6
2022-08-04T05:55:48.886Z,24.6
2022-08-04T05:56:27.962Z,24.6
2022-08-04T05:57:27.967Z,24.5
2022-08-04T05:58:27.964Z,24.5
2022-08-04T05:59:27.956Z,24.6
2022-08-04T06:00:40.743Z,24.7
2022-08-04T06:01:28.011Z,24.7
2022-08-04T06:02:27.967Z,24.7
2022-08-04T06:03:27.971Z,24.8
2022-08-04T06:05:27.962Z,24.7
2022-08-04T06:06:28.070Z,24.8
2022-08-04T06:07:27.973Z,24.8
2022-08-04T06:08:27.969Z,24.8
2022-08-04T06:09:27.967Z,25
2022-08-04T06:10:29.304Z,24.9
2022-08-04T06:11:27.970Z,24.7
2022-08-04T06:12:27.971Z,24.8
2022-08-04T06:13:49.203Z,25
2022-08-04T06:14:27.973Z,25
2022-08-04T06:15:27.968Z,25.1
2022-08-04T06:16:29.583Z,25.2
2022-08-04T06:18:35.586Z,25.7
2022-08-04T06:19:58.714Z,25.6
2022-08-04T06:20:01.809Z,25.9
2022-08-04T06:20:28.203Z,25.9
2022-08-04T06:21:27.973Z,26.1
2022-08-04T06:22:27.974Z,26.2
2022-08-04T06:23:27.972Z,26.2
2022-08-04T06:24:27.983Z,26.2
2022-08-04T06:26:27.971Z,26.2
2022-08-04T06:27:28.000Z,26.3
2022-08-04T06:28:27.978Z,26.4
2022-08-04T06:29:27.981Z,26.5
2022-08-04T06:30:28.047Z,26.4
2022-08-04T06:32:31.823Z,26.3
2022-08-04T06:32:35.496Z,26.5
2022-08-04T06:33:27.989Z,26.5
2022-08-04T06:34:27.979Z,26.7
2022-08-04T06:35:27.984Z,26.7
2022-08-04T06:36:27.993Z,26.7
2022-08-04T06:37:43.090Z,26.8
2022-08-04T06:38:27.985Z,26.8
2022-08-04T06:39:28.072Z,26.9
2022-08-04T06:40:31.459Z,26.9
2022-08-04T06:41:27.983Z,26.9
2022-08-04T06:42:28.002Z,26.8
2022-08-04T06:43:27.990Z,26.7
2022-08-04T06:44:27.994Z,26.8
2022-08-04T06:45:28.227Z,26.9
2022-08-04T06:46:27.999Z,26.9
2022-08-04T06:47:27.991Z,26.8
2022-08-04T06:48:33.207Z,26.8
2022-08-04T06:49:27.984Z,26.9
2022-08-04T06:51:32.925Z,26.8
2022-08-04T06:51:38.918Z,26.9
2022-08-04T06:52:27.987Z,26.9
2022-08-04T06:53:27.984Z,26.9
2022-08-04T06:54:27.997Z,26.9
2022-08-04T06:55:27.989Z,27
2022-08-04T06:56:27.990Z,27.1
2022-08-04T06:57:27.987Z,27.1
2022-08-04T06:58:27.998Z,27.2
2022-08-04T06:59:27.998Z,27.1
2022-08-04T07:00:28.007Z,27.1
2022-08-04T07:01:28.066Z,27.2
2022-08-04T07:02:28.160Z,27
2022-08-04T07:03:27.994Z,27.1
2022-08-04T07:04:27.996Z,27.2
2022-08-04T07:05:27.994Z,27.1
2022-08-04T07:06:27.993Z,27.2
2022-08-04T07:07:33.944Z,27.3
2022-08-04T07:08:27.998Z,27.4
2022-08-04T07:09:27.998Z,27.4
2022-08-04T07:10:28.278Z,27.5
2022-08-04T07:11:27.998Z,27.5
2022-08-04T07:12:28.001Z,27.7
2022-08-04T07:13:27.998Z,27.9
2022-08-04T07:14:28.007Z,28
2022-08-04T07:15:28.008Z,28.3
2022-08-04T07:16:30.697Z,28.5
2022-08-04T07:17:28.745Z,28.6
2022-08-04T07:19:28.005Z,29.1
2022-08-04T07:20:33.034Z,29.3
2022-08-04T07:21:28.010Z,29.3
2022-08-04T07:22:28.002Z,29.2
2022-08-04T07:23:28.010Z,29.3
2022-08-04T07:24:28.013Z,29.5
2022-08-04T07:25:58.529Z,29.7
2022-08-04T07:26:28.072Z,29.6
2022-08-04T07:27:47.785Z,29.6
2022-08-04T07:28:28.008Z,29.8
2022-08-04T07:29:28.016Z,29.6
2022-08-04T07:30:28.124Z,29.3
2022-08-04T07:31:33.852Z,29.5
2022-08-04T07:32:28.016Z,29.8
2022-08-04T07:33:28.014Z,29.9
2022-08-04T07:34:28.012Z,30.1
2022-08-04T07:36:09.440Z,30
2022-08-04T07:36:29.939Z,30.1
2022-08-04T07:37:36.153Z,30.5
2022-08-04T07:38:28.044Z,30.7
2022-08-04T07:40:28.025Z,30.8
2022-08-04T07:41:36.090Z,30.7
2022-08-04T07:42:28.013Z,30.7
2022-08-04T07:43:28.021Z,31
2022-08-04T07:44:28.016Z,31.3
2022-08-04T07:45:28.016Z,31.5
2022-08-04T07:46:28.024Z,31.8
2022-08-04T07:47:28.152Z,31.4
2022-08-04T07:48:28.030Z,31.6
2022-08-04T07:49:56.012Z,31.7
2022-08-04T07:50:28.042Z,31.2
2022-08-04T07:51:28.028Z,31.1
2022-08-04T07:52:28.025Z,30.9
2022-08-04T07:53:54.979Z,31
2022-08-04T07:54:28.021Z,31.1
2022-08-04T07:55:28.025Z,31.1
2022-08-04T07:56:28.100Z,31.1
2022-08-04T07:57:40.021Z,31.3
2022-08-04T07:58:30.079Z,31.7
2022-08-04T07:59:28.023Z,31.7
2022-08-04T08:00:28.021Z,31.5
2022-08-04T08:01:28.038Z,31.1
2022-08-04T08:02:28.025Z,31.1
2022-08-04T08:03:28.081Z,31.3
2022-08-04T08:04:28.022Z,31.2
2022-08-04T08:05:28.036Z,31.1
2022-08-04T08:06:32.126Z,31.2
2022-08-04T08:07:28.029Z,31.7
2022-08-04T08:08:28.027Z,32.1
2022-08-04T08:09:28.028Z,32.5
2022-08-04T08:10:28.037Z,32.6
2022-08-04T08:12:36.225Z,32.5
2022-08-04T08:12:38.379Z,32.7
2022-08-04T08:13:32.848Z,32.3
2022-08-04T08:14:28.041Z,32.5
2022-08-04T08:15:28.031Z,32.6
2022-08-04T08:16:28.034Z,32.7
2022-08-04T08:17:28.043Z,32.3
2022-08-04T08:18:28.057Z,32.3
2022-08-04T08:19:28.035Z,32.7
2022-08-04T08:20:29.710Z,32.9
2022-08-04T08:21:28.041Z,33.2
2022-08-04T08:22:28.041Z,33.4
2022-08-04T08:23:28.057Z,33.1
2022-08-04T08:24:28.046Z,33.3
2022-08-04T08:25:28.039Z,33.8
2022-08-04T08:26:28.042Z,33.8
2022-08-04T08:27:28.043Z,33.7
2022-08-04T08:28:28.045Z,32.9
2022-08-04T08:29:28.040Z,32.7
2022-08-04T08:30:31.956Z,33
2022-08-04T08:31:57.319Z,32.5
2022-08-04T08:32:28.045Z,32.3
2022-08-04T08:33:28.074Z,32.1
2022-08-04T08:34:28.765Z,32.1
2022-08-04T08:35:28.056Z,32.3
2022-08-04T08:36:28.051Z,32.6
2022-08-04T08:37:28.056Z,33.1
2022-08-04T08:38:28.050Z,33.5
2022-08-04T08:39:28.076Z,34
2022-08-04T08:40:40.186Z,33.9
2022-08-04T08:41:28.051Z,34
2022-08-04T08:42:28.055Z,34.2
2022-08-04T08:44:00.507Z,34.4
2022-08-04T08:44:36.315Z,34.3
2022-08-04T08:45:28.049Z,33.9
2022-08-04T08:46:47.938Z,33.9
2022-08-04T08:47:28.058Z,33.5
2022-08-04T08:48:28.051Z,33.1
2022-08-04T08:50:00.805Z,33.3
2022-08-04T08:50:28.059Z,33.5
2022-08-04T08:51:28.063Z,33.8
2022-08-04T08:53:00.744Z,34
2022-08-04T08:53:28.060Z,34.3
2022-08-04T08:54:28.062Z,34.2
2022-08-04T08:55:28.063Z,34.3
2022-08-04T08:56:31.170Z,34.4
2022-08-04T08:57:28.070Z,34.3
2022-08-04T08:59:28.066Z,33.5
2022-08-04T09:00:31.600Z,34
2022-08-04T09:01:28.138Z,34.2
2022-08-04T09:02:28.064Z,34.8
2022-08-04T09:03:28.066Z,34.3
2022-08-04T09:04:31.936Z,34.2
2022-08-04T09:05:28.070Z,33.9
2022-08-04T09:06:28.065Z,34.3
2022-08-04T09:07:28.074Z,34.8
2022-08-04T09:08:28.074Z,34.1
2022-08-04T09:09:28.064Z,34.4
2022-08-04T09:10:33.064Z,34.8
2022-08-04T09:11:28.075Z,35.1
2022-08-04T09:12:28.084Z,35.6
2022-08-04T09:13:28.072Z,35.7
2022-08-04T09:14:28.088Z,35.7
2022-08-04T09:15:28.081Z,36.1
2022-08-04T09:16:28.085Z,36.2
2022-08-04T09:17:28.073Z,36
2022-08-04T09:18:28.083Z,36.1
2022-08-04T09:19:38.488Z,36.1
2022-08-04T09:20:28.082Z,36
2022-08-04T09:21:28.076Z,36.3
2022-08-04T09:22:28.074Z,35.5
2022-08-04T09:23:28.090Z,35.5
2022-08-04T09:24:36.205Z,35.5
2022-08-04T09:25:28.079Z,35.5
2022-08-04T09:27:28.081Z,35.6
2022-08-04T09:28:52.152Z,35.4
2022-08-04T09:29:28.078Z,35.3
2022-08-04T09:30:28.094Z,35.3
2022-08-04T09:31:28.091Z,34.7
2022-08-04T09:32:28.097Z,34.7
2022-08-04T09:33:44.592Z,34.6
2022-08-04T09:34:28.087Z,34.4
2022-08-04T09:35:28.087Z,34.5
2022-08-04T09:36:28.146Z,34.5
2022-08-04T09:38:28.106Z,33.8
2022-08-04T09:39:28.167Z,33.8
2022-08-04T09:40:29.164Z,33.6
2022-08-04T09:41:49.293Z,33.6
2022-08-04T09:42:29.203Z,33.3
2022-08-04T09:43:28.107Z,33.4
2022-08-04T09:44:52.102Z,33.4
2022-08-04T09:45:43.416Z,33.4
2022-08-04T09:46:28.103Z,33.7
2022-08-04T09:48:28.093Z,33.6
2022-08-04T09:49:28.099Z,33.9
2022-08-04T09:50:28.088Z,34
2022-08-04T09:51:58.913Z,34.1
2022-08-04T09:52:28.096Z,34.4
2022-08-04T09:53:28.104Z,34.7
2022-08-04T09:54:30.486Z,34.8
2022-08-04T09:55:28.102Z,34.8
2022-08-04T09:56:28.097Z,34.6
2022-08-04T09:57:28.104Z,34.7
2022-08-04T09:58:28.107Z,34.8
2022-08-04T09:59:28.102Z,34.9
2022-08-04T10:00:41.362Z,35.1
2022-08-04T10:01:28.106Z,35.2
2022-08-04T10:02:28.114Z,35.3
2022-08-04T10:03:28.166Z,35.5
2022-08-04T10:04:28.107Z,35.7
2022-08-04T10:05:31.116Z,35.8
2022-08-04T10:06:28.121Z,35.6
2022-08-04T10:07:28.108Z,35.7
2022-08-04T10:09:28.119Z,35.3
2022-08-04T10:10:28.107Z,35.6
2022-08-04T10:11:28.114Z,35.4
2022-08-04T10:12:28.115Z,35.8
2022-08-04T10:13:28.123Z,36.3
2022-08-04T10:14:28.113Z,36.5
2022-08-04T10:15:28.116Z,36.7
2022-08-04T10:16:28.111Z,35.8
2022-08-04T10:17:28.114Z,36.1
2022-08-04T10:18:28.127Z,36.3
2022-08-04T10:19:28.120Z,36.5
2022-08-04T10:20:46.423Z,36.8
2022-08-04T10:21:28.123Z,37
2022-08-04T10:22:36.958Z,37.3
2022-08-04T10:23:28.127Z,37.6
2022-08-04T10:24:28.123Z,37.8
2022-08-04T10:26:02.743Z,37.8
2022-08-04T10:26:28.115Z,37.2
2022-08-04T10:27:28.120Z,36.6
2022-08-04T10:28:28.117Z,36.3
2022-08-04T10:30:28.132Z,36
2022-08-04T10:31:28.122Z,36.2
2022-08-04T10:32:28.125Z,36.3
2022-08-04T10:33:28.144Z,36.6
2022-08-04T10:34:28.148Z,36.7
2022-08-04T10:35:28.132Z,36.6
2022-08-04T10:36:28.141Z,36.5
2022-08-04T10:37:59.998Z,36.4
2022-08-04T10:38:28.132Z,36.6
2022-08-04T10:39:43.024Z,36.5
2022-08-04T10:40:28.156Z,36.5
2022-08-04T10:41:28.139Z,36.7
2022-08-04T10:42:28.143Z,37.2
2022-08-04T10:43:28.129Z,37.3
2022-08-04T10:44:28.132Z,37.4
2022-08-04T10:45:28.136Z,37.5
2022-08-04T10:46:28.139Z,37.7
2022-08-04T10:47:28.128Z,36.7
2022-08-04T10:48:34.782Z,36.9
2022-08-04T10:49:28.138Z,36.2
2022-08-04T10:51:28.132Z,36.3
2022-08-04T10:52:28.142Z,36.4
2022-08-04T10:53:28.138Z,36.1
2022-08-04T10:54:28.151Z,36.2
2022-08-04T10:56:06.530Z,35.6
2022-08-04T10:56:28.144Z,35.2
2022-08-04T10:57:28.177Z,34.9
2022-08-04T10:59:28.152Z,35.4
2022-08-04T11:00:28.145Z,35.4
2022-08-04T11:01:50.585Z,35.2
2022-08-04T11:02:28.209Z,35
2022-08-04T11:03:28.198Z,35
2022-08-04T11:04:28.203Z,35.2
2022-08-04T11:05:28.154Z,35.3
2022-08-04T11:06:28.145Z,35.8
2022-08-04T11:07:28.143Z,36.2
2022-08-04T11:08:28.171Z,36.3
2022-08-04T11:09:28.157Z,36.7
2022-08-04T11:10:28.156Z,36.9
2022-08-04T11:12:28.156Z,37
2022-08-04T11:13:29.959Z,37
2022-08-04T11:14:28.166Z,36.9
2022-08-04T11:15:28.152Z,36.7
2022-08-04T11:16:28.155Z,36.5
2022-08-04T11:17:28.158Z,36.3
2022-08-04T11:18:28.157Z,36.5
2022-08-04T11:19:45.150Z,36.2
2022-08-04T11:20:36.309Z,36.3
2022-08-04T11:21:28.157Z,36.4
2022-08-04T11:22:28.157Z,36.5
2022-08-04T11:23:28.165Z,36.4
2022-08-04T11:24:28.163Z,36.6
2022-08-04T11:25:28.161Z,36.6
2022-08-04T11:26:28.181Z,36.4
2022-08-04T11:27:28.165Z,36.2
2022-08-04T11:28:30.571Z,36
2022-08-04T11:29:28.172Z,35.9
2022-08-04T11:30:28.238Z,36.2
2022-08-04T11:31:28.197Z,36.2
2022-08-04T11:33:28.171Z,36.6
2022-08-04T11:34:28.175Z,36.9
2022-08-04T11:35:28.176Z,36.4
2022-08-04T11:36:28.168Z,36.5
2022-08-04T11:38:32.152Z,36.4
2022-08-04T11:39:28.223Z,36.4
2022-08-04T11:40:28.173Z,36
2022-08-04T11:41:28.180Z,36.1
2022-08-04T11:42:28.179Z,36.4
2022-08-04T11:44:00.474Z,36.1
2022-08-04T11:44:28.182Z,36.2
2022-08-04T11:45:28.185Z,36.1
2022-08-04T11:46:28.188Z,36.2
2022-08-04T11:47:28.179Z,36.3
2022-08-04T11:48:28.186Z,35.8
2022-08-04T11:49:28.177Z,35.7
2022-08-04T11:50:28.204Z,35.7
2022-08-04T11:51:28.204Z,35.5
2022-08-04T11:52:28.182Z,35.7
2022-08-04T11:54:28.182Z,35.6
2022-08-04T11:55:28.186Z,35.4
2022-08-04T11:56:36.470Z,35.4
2022-08-04T11:57:35.681Z,35.3
2022-08-04T11:58:28.189Z,35.5
2022-08-04T11:59:28.184Z,35.6
2022-08-04T12:00:28.189Z,35.4
2022-08-04T12:01:28.188Z,35.6
2022-08-04T12:02:28.259Z,35.4
2022-08-04T12:03:28.199Z,35
2022-08-04T12:04:28.193Z,34.9
2022-08-04T12:05:37.203Z,34.9
2022-08-04T12:06:28.196Z,34.8
2022-08-04T12:07:30.970Z,34.8
2022-08-04T12:08:28.193Z,34.8
2022-08-04T12:09:28.197Z,34.5
2022-08-04T12:10:41.039Z,34.5
2022-08-04T12:11:28.217Z,34.5
2022-08-04T12:12:28.199Z,34.5
2022-08-04T12:13:28.217Z,34.3
2022-08-04T12:16:30.388Z,34.1
2022-08-04T12:17:28.194Z,34.2
2022-08-04T12:18:28.210Z,34
2022-08-04T12:19:33.915Z,34.2
2022-08-04T12:20:31.451Z,34.3
2022-08-04T12:21:28.215Z,34.3
2022-08-04T12:22:31.562Z,34.3
2022-08-04T12:23:28.226Z,34.2
2022-08-04T12:24:28.207Z,34
2022-08-04T12:25:28.207Z,33.6
2022-08-04T12:26:28.199Z,33.7
2022-08-04T12:27:30.716Z,33.8
2022-08-04T12:28:31.307Z,33.9
2022-08-04T12:29:28.209Z,33.9
2022-08-04T12:31:00.013Z,33.8
2022-08-04T12:31:28.210Z,33.7
2022-08-04T12:32:28.203Z,33.8
2022-08-04T12:33:41.292Z,33.8
2022-08-04T12:34:29.765Z,33.8
2022-08-04T12:36:28.206Z,33.5
2022-08-04T12:37:28.224Z,33.5
2022-08-04T12:38:28.223Z,33.3
2022-08-04T12:39:28.340Z,33.1
2022-08-04T12:40:30.949Z,33.2
2022-08-04T12:41:28.215Z,33.5
2022-08-04T12:42:28.211Z,33.6
2022-08-04T12:43:28.228Z,33.3
2022-08-04T12:44:36.294Z,33.6
2022-08-04T12:45:28.219Z,33.8
2022-08-04T12:46:28.216Z,33.9
2022-08-04T12:47:29.515Z,34.1
2022-08-04T12:48:28.225Z,34.2
2022-08-04T12:49:28.225Z,34.2
2022-08-04T12:50:28.218Z,34.1
2022-08-04T12:51:55.993Z,34
